sensor_id;sensor_type;location;lat;lon;timestamp;temperature;humidity
5711;DHT22;61291;52.524;13.422;2022-12-10T00:01:36;-0.20;99.90
5711;DHT22;61291;52.524;13.422;2022-12-10T00:04:03;-0.20;99.90
5711;DHT22;61291;52.524;13.422;2022-12-10T00:06:31;-0.30;99.90
5711;DHT22;61291;52.524;13.422;2022-12-10T00:08:58;-0.30;99.90
5711;DHT22;61291;52.524;13.422;2022-12-10T00:11:24;-0.20;99.90
5711;DHT22;61291;52.524;13.422;2022-12-10T00:13:50;-0.10;99.90
5711;DHT22;61291;52.524;13.422;2022-12-10T00:16:18;-0.10;99.90
5711;DHT22;61291;52.524;13.422;2022-12-10T00:18:44;-0.10;99.90
5711;DHT22;61291;52.524;13.422;2022-12-10T00:21:17;-0.10;99.90
5711;DHT22;61291;52.524;13.422;2022-12-10T00:23:44;-0.20;99.90
5711;DHT22;61291;52.524;13.422;2022-12-10T00:26:12;-0.20;99.90
5711;DHT22;61291;52.524;13.422;2022-12-10T00:28:38;-0.20;99.90
5711;DHT22;61291;52.524;13.422;2022-12-10T00:31:06;-0.20;99.90
5711;DHT22;61291;52.524;13.422;2022-12-10T00:33:33;-0.20;99.90
5711;DHT22;61291;52.524;13.422;2022-12-10T00:36:17;-0.30;99.90
5711;DHT22;61291;52.524;13.422;2022-12-10T00:38:43;-0.30;99.90
5711;DHT22;61291;52.524;13.422;2022-12-10T00:41:10;-0.30;99.90
5711;DHT22;61291;52.524;13.422;2022-12-10T00:43:35;-0.40;99.90
5711;DHT22;61291;52.524;13.422;2022-12-10T00:46:02;-0.40;99.90
5711;DHT22;61291;52.524;13.422;2022-12-10T00:48:27;-0.40;99.90
5711;DHT22;61291;52.524;13.422;2022-12-10T00:53:28;-0.40;99.90
5711;DHT22;61291;52.524;13.422;2022-12-10T00:55:55;-0.40;99.90
5711;DHT22;61291;52.524;13.422;2022-12-10T00:58:21;-0.30;99.90
5711;DHT22;61291;52.524;13.422;2022-12-10T01:00:47;-0.40;99.90
5711;DHT22;61291;52.524;13.422;2022-12-10T01:03:12;-0.40;99.90
5711;DHT22;61291;52.524;13.422;2022-12-10T01:05:38;-0.40;99.90
5711;DHT22;61291;52.524;13.422;2022-12-10T01:08:04;-0.50;99.90
5711;DHT22;61291;52.524;13.422;2022-12-10T01:10:29;-0.50;99.90
5711;DHT22;61291;52.524;13.422;2022-12-10T01:12:55;-0.50;99.90
5711;DHT22;61291;52.524;13.422;2022-12-10T01:15:23;-0.60;99.90
5711;DHT22;61291;52.524;13.422;2022-12-10T01:17:57;-0.60;99.90
5711;DHT22;61291;52.524;13.422;2022-12-10T01:20:23;-0.60;99.90
5711;DHT22;61291;52.524;13.422;2022-12-10T01:22:48;-0.70;99.90
5711;DHT22;61291;52.524;13.422;2022-12-10T01:25:14;-0.70;99.90
5711;DHT22;61291;52.524;13.422;2022-12-10T01:27:39;-0.80;99.90
5711;DHT22;61291;52.524;13.422;2022-12-10T01:30:05;-0.90;99.90
5711;DHT22;61291;52.524;13.422;2022-12-10T01:32:31;-0.90;99.90
5711;DHT22;61291;52.524;13.422;2022-12-10T01:34:57;-0.90;99.90
5711;DHT22;61291;52.524;13.422;2022-12-10T01:37:22;-0.90;99.90
5711;DHT22;61291;52.524;13.422;2022-12-10T01:39:48;-1.00;99.90
5711;DHT22;61291;52.524;13.422;2022-12-10T01:42:13;-1.00;99.90
5711;DHT22;61291;52.524;13.422;2022-12-10T01:47:08;-1.10;99.90
5711;DHT22;61291;52.524;13.422;2022-12-10T01:49:37;-1.10;99.90
5711;DHT22;61291;52.524;13.422;2022-12-10T01:52:04;-1.20;99.90
5711;DHT22;61291;52.524;13.422;2022-12-10T01:54:40;-1.20;99.90
5711;DHT22;61291;52.524;13.422;2022-12-10T01:57:18;-1.30;99.90
5711;DHT22;61291;52.524;13.422;2022-12-10T01:59:56;-1.40;99.90
5711;DHT22;61291;52.524;13.422;2022-12-10T02:02:36;-1.30;99.90
5711;DHT22;61291;52.524;13.422;2022-12-10T02:07:58;-1.40;99.90
5711;DHT22;61291;52.524;13.422;2022-12-10T02:15:43;-1.40;99.90
5711;DHT22;61291;52.524;13.422;2022-12-10T02:18:18;-1.60;99.90
5711;DHT22;61291;52.524;13.422;2022-12-10T02:20:51;-1.50;99.90
5711;DHT22;61291;52.524;13.422;2022-12-10T02:23:30;-1.50;99.90
5711;DHT22;61291;52.524;13.422;2022-12-10T02:26:03;-1.50;99.90
5711;DHT22;61291;52.524;13.422;2022-12-10T02:28:43;-1.60;99.90
5711;DHT22;61291;52.524;13.422;2022-12-10T02:31:15;-1.50;99.90
5711;DHT22;61291;52.524;13.422;2022-12-10T02:33:46;-1.60;99.90
5711;DHT22;61291;52.524;13.422;2022-12-10T02:36:14;-1.60;99.90
5711;DHT22;61291;52.524;13.422;2022-12-10T02:38:41;-1.50;99.90
5711;DHT22;61291;52.524;13.422;2022-12-10T02:44:04;-1.40;99.90
5711;DHT22;61291;52.524;13.422;2022-12-10T02:46:32;-1.40;99.90
5711;DHT22;61291;52.524;13.422;2022-12-10T02:48:58;-1.40;99.90
5711;DHT22;61291;52.524;13.422;2022-12-10T02:51:25;-1.40;99.90
5711;DHT22;61291;52.524;13.422;2022-12-10T02:54:40;-1.40;99.90
5711;DHT22;61291;52.524;13.422;2022-12-10T02:57:27;-1.40;99.90
5711;DHT22;61291;52.524;13.422;2022-12-10T03:00:06;-1.40;99.90
5711;DHT22;61291;52.524;13.422;2022-12-10T03:08:39;-1.40;99.90
5711;DHT22;61291;52.524;13.422;2022-12-10T03:11:16;-1.40;99.90
5711;DHT22;61291;52.524;13.422;2022-12-10T03:14:22;-1.30;99.90
5711;DHT22;61291;52.524;13.422;2022-12-10T03:16:53;-1.30;99.90
5711;DHT22;61291;52.524;13.422;2022-12-10T03:19:21;-1.20;99.90
5711;DHT22;61291;52.524;13.422;2022-12-10T03:21:49;-1.20;99.90
5711;DHT22;61291;52.524;13.422;2022-12-10T03:24:16;-1.20;99.90
5711;DHT22;61291;52.524;13.422;2022-12-10T03:26:43;-1.10;99.90
5711;DHT22;61291;52.524;13.422;2022-12-10T03:29:17;-1.10;99.90
5711;DHT22;61291;52.524;13.422;2022-12-10T03:31:45;-1.00;99.90
5711;DHT22;61291;52.524;13.422;2022-12-10T03:34:11;-1.00;99.90
5711;DHT22;61291;52.524;13.422;2022-12-10T03:36:38;-1.00;99.90
5711;DHT22;61291;52.524;13.422;2022-12-10T03:39:04;-1.10;99.90
5711;DHT22;61291;52.524;13.422;2022-12-10T03:41:30;-1.10;99.90
5711;DHT22;61291;52.524;13.422;2022-12-10T03:43:58;-1.10;99.90
5711;DHT22;61291;52.524;13.422;2022-12-10T03:46:26;-1.10;99.90
5711;DHT22;61291;52.524;13.422;2022-12-10T03:48:53;-1.10;99.90
5711;DHT22;61291;52.524;13.422;2022-12-10T03:54:40;-1.10;99.90
5711;DHT22;61291;52.524;13.422;2022-12-10T03:57:06;-1.10;99.90
5711;DHT22;61291;52.524;13.422;2022-12-10T03:59:32;-1.10;99.90
5711;DHT22;61291;52.524;13.422;2022-12-10T04:01:57;-1.10;99.90
5711;DHT22;61291;52.524;13.422;2022-12-10T04:04:23;-1.10;99.90
5711;DHT22;61291;52.524;13.422;2022-12-10T04:06:48;-1.00;99.90
5711;DHT22;61291;52.524;13.422;2022-12-10T04:09:15;-1.00;99.90
5711;DHT22;61291;52.524;13.422;2022-12-10T04:11:41;-1.00;99.90
5711;DHT22;61291;52.524;13.422;2022-12-10T04:14:09;-0.90;99.90
5711;DHT22;61291;52.524;13.422;2022-12-10T04:16:53;-0.90;99.90
5711;DHT22;61291;52.524;13.422;2022-12-10T04:19:19;-0.80;99.90
5711;DHT22;61291;52.524;13.422;2022-12-10T04:21:45;-0.80;99.90
5711;DHT22;61291;52.524;13.422;2022-12-10T04:24:33;-0.70;99.90
5711;DHT22;61291;52.524;13.422;2022-12-10T04:27:21;-0.60;99.90
5711;DHT22;61291;52.524;13.422;2022-12-10T04:29:47;-0.60;99.90
5711;DHT22;61291;52.524;13.422;2022-12-10T04:32:13;-0.60;99.90
5711;DHT22;61291;52.524;13.422;2022-12-10T04:34:39;-0.50;99.90
5711;DHT22;61291;52.524;13.422;2022-12-10T04:37:05;-0.50;99.90
5711;DHT22;61291;52.524;13.422;2022-12-10T04:39:31;-0.50;99.90
5711;DHT22;61291;52.524;13.422;2022-12-10T04:41:56;-0.50;99.90
5711;DHT22;61291;52.524;13.422;2022-12-10T04:44:22;-0.50;99.90
5711;DHT22;61291;52.524;13.422;2022-12-10T04:46:48;-0.40;99.90
5711;DHT22;61291;52.524;13.422;2022-12-10T04:49:14;-0.40;99.90
5711;DHT22;61291;52.524;13.422;2022-12-10T04:51:40;-0.30;99.90
5711;DHT22;61291;52.524;13.422;2022-12-10T04:54:06;-0.30;99.90
5711;DHT22;61291;52.524;13.422;2022-12-10T04:56:32;-0.30;99.90
5711;DHT22;61291;52.524;13.422;2022-12-10T04:58:58;-0.20;99.90
5711;DHT22;61291;52.524;13.422;2022-12-10T05:01:25;-0.20;99.90
5711;DHT22;61291;52.524;13.422;2022-12-10T05:03:51;-0.20;99.90
5711;DHT22;61291;52.524;13.422;2022-12-10T05:06:17;-0.10;99.90
5711;DHT22;61291;52.524;13.422;2022-12-10T05:08:43;-0.10;99.90
5711;DHT22;61291;52.524;13.422;2022-12-10T05:11:11;-0.10;99.90
5711;DHT22;61291;52.524;13.422;2022-12-10T05:13:38;0.00;99.90
5711;DHT22;61291;52.524;13.422;2022-12-10T05:16:05;0.10;99.90
5711;DHT22;61291;52.524;13.422;2022-12-10T05:18:31;0.10;99.90
5711;DHT22;61291;52.524;13.422;2022-12-10T05:21:01;0.10;99.90
5711;DHT22;61291;52.524;13.422;2022-12-10T05:23:27;0.20;99.90
5711;DHT22;61291;52.524;13.422;2022-12-10T05:26:08;0.30;99.90
5711;DHT22;61291;52.524;13.422;2022-12-10T05:28:48;0.20;99.90
5711;DHT22;61291;52.524;13.422;2022-12-10T05:31:18;0.20;99.90
5711;DHT22;61291;52.524;13.422;2022-12-10T05:33:44;0.30;99.90
5711;DHT22;61291;52.524;13.422;2022-12-10T05:36:11;0.30;99.90
5711;DHT22;61291;52.524;13.422;2022-12-10T05:38:38;0.40;99.90
5711;DHT22;61291;52.524;13.422;2022-12-10T05:41:06;0.40;99.90
5711;DHT22;61291;52.524;13.422;2022-12-10T05:43:32;0.40;99.90
5711;DHT22;61291;52.524;13.422;2022-12-10T05:46:06;0.30;99.90
5711;DHT22;61291;52.524;13.422;2022-12-10T05:48:33;0.40;99.90
5711;DHT22;61291;52.524;13.422;2022-12-10T05:51:09;0.40;99.90
5711;DHT22;61291;52.524;13.422;2022-12-10T05:53:35;0.40;99.90
5711;DHT22;61291;52.524;13.422;2022-12-10T05:56:03;0.50;99.90
5711;DHT22;61291;52.524;13.422;2022-12-10T05:58:29;0.50;99.90
5711;DHT22;61291;52.524;13.422;2022-12-10T06:00:58;0.60;99.90
5711;DHT22;61291;52.524;13.422;2022-12-10T06:03:25;0.60;99.90
5711;DHT22;61291;52.524;13.422;2022-12-10T06:05:51;0.70;99.90
5711;DHT22;61291;52.524;13.422;2022-12-10T06:08:17;0.80;99.90
5711;DHT22;61291;52.524;13.422;2022-12-10T06:10:42;0.80;99.90
5711;DHT22;61291;52.524;13.422;2022-12-10T06:13:08;0.70;99.90
5711;DHT22;61291;52.524;13.422;2022-12-10T06:15:33;0.80;99.90
5711;DHT22;61291;52.524;13.422;2022-12-10T06:17:59;0.80;99.90
5711;DHT22;61291;52.524;13.422;2022-12-10T06:20:25;0.60;99.90
5711;DHT22;61291;52.524;13.422;2022-12-10T06:22:51;0.60;99.90
5711;DHT22;61291;52.524;13.422;2022-12-10T06:25:17;0.60;99.90
5711;DHT22;61291;52.524;13.422;2022-12-10T06:27:42;0.60;99.90
5711;DHT22;61291;52.524;13.422;2022-12-10T06:30:08;0.60;99.90
5711;DHT22;61291;52.524;13.422;2022-12-10T06:32:34;0.50;99.90
5711;DHT22;61291;52.524;13.422;2022-12-10T06:35:00;0.50;99.90
5711;DHT22;61291;52.524;13.422;2022-12-10T06:37:25;0.40;99.90
5711;DHT22;61291;52.524;13.422;2022-12-10T06:39:51;0.40;99.90
5711;DHT22;61291;52.524;13.422;2022-12-10T06:42:18;0.30;99.90
5711;DHT22;61291;52.524;13.422;2022-12-10T06:44:43;0.30;99.90
5711;DHT22;61291;52.524;13.422;2022-12-10T06:47:09;0.30;99.90
5711;DHT22;61291;52.524;13.422;2022-12-10T06:49:35;0.30;99.90
5711;DHT22;61291;52.524;13.422;2022-12-10T06:52:01;0.30;99.90
5711;DHT22;61291;52.524;13.422;2022-12-10T06:54:26;0.30;99.90
5711;DHT22;61291;52.524;13.422;2022-12-10T06:56:52;0.30;99.90
5711;DHT22;61291;52.524;13.422;2022-12-10T06:59:18;0.20;99.90
5711;DHT22;61291;52.524;13.422;2022-12-10T07:01:45;0.20;99.90
5711;DHT22;61291;52.524;13.422;2022-12-10T07:04:11;0.20;99.90
5711;DHT22;61291;52.524;13.422;2022-12-10T07:06:36;0.30;99.90
5711;DHT22;61291;52.524;13.422;2022-12-10T07:09:02;0.20;99.90
5711;DHT22;61291;52.524;13.422;2022-12-10T07:11:27;0.30;99.90
5711;DHT22;61291;52.524;13.422;2022-12-10T07:13:56;0.30;99.90
5711;DHT22;61291;52.524;13.422;2022-12-10T07:16:24;0.30;99.90
5711;DHT22;61291;52.524;13.422;2022-12-10T07:18:51;0.30;99.90
5711;DHT22;61291;52.524;13.422;2022-12-10T07:21:20;0.30;99.90
5711;DHT22;61291;52.524;13.422;2022-12-10T07:23:46;0.20;99.90
5711;DHT22;61291;52.524;13.422;2022-12-10T07:26:11;0.20;99.90
5711;DHT22;61291;52.524;13.422;2022-12-10T07:28:37;0.30;99.90
5711;DHT22;61291;52.524;13.422;2022-12-10T07:31:04;0.20;99.90
5711;DHT22;61291;52.524;13.422;2022-12-10T07:33:30;0.30;99.90
5711;DHT22;61291;52.524;13.422;2022-12-10T07:35:55;0.30;99.90
5711;DHT22;61291;52.524;13.422;2022-12-10T07:38:22;0.30;99.90
5711;DHT22;61291;52.524;13.422;2022-12-10T07:40:47;0.40;99.90
5711;DHT22;61291;52.524;13.422;2022-12-10T07:43:13;0.30;99.90
5711;DHT22;61291;52.524;13.422;2022-12-10T07:45:38;0.30;99.90
5711;DHT22;61291;52.524;13.422;2022-12-10T07:48:04;0.40;99.90
5711;DHT22;61291;52.524;13.422;2022-12-10T07:50:30;0.40;99.90
5711;DHT22;61291;52.524;13.422;2022-12-10T07:52:55;0.40;99.90
5711;DHT22;61291;52.524;13.422;2022-12-10T07:55:20;0.70;99.90
5711;DHT22;61291;52.524;13.422;2022-12-10T07:57:46;0.70;99.90
5711;DHT22;61291;52.524;13.422;2022-12-10T08:00:12;0.60;99.90
5711;DHT22;61291;52.524;13.422;2022-12-10T08:02:37;0.70;99.90
5711;DHT22;61291;52.524;13.422;2022-12-10T08:05:03;0.70;99.90
5711;DHT22;61291;52.524;13.422;2022-12-10T08:07:29;0.60;99.90
5711;DHT22;61291;52.524;13.422;2022-12-10T08:09:54;0.60;99.90
5711;DHT22;61291;52.524;13.422;2022-12-10T08:12:19;0.80;99.90
5711;DHT22;61291;52.524;13.422;2022-12-10T08:14:45;0.60;99.90
5711;DHT22;61291;52.524;13.422;2022-12-10T08:17:10;0.60;99.90
5711;DHT22;61291;52.524;13.422;2022-12-10T08:19:36;0.60;99.90
5711;DHT22;61291;52.524;13.422;2022-12-10T08:22:01;0.80;99.90
5711;DHT22;61291;52.524;13.422;2022-12-10T08:24:27;0.90;99.90
5711;DHT22;61291;52.524;13.422;2022-12-10T08:26:58;0.90;99.90
5711;DHT22;61291;52.524;13.422;2022-12-10T08:29:23;0.90;99.90
5711;DHT22;61291;52.524;13.422;2022-12-10T08:31:48;1.00;99.90
5711;DHT22;61291;52.524;13.422;2022-12-10T08:34:16;1.00;99.90
5711;DHT22;61291;52.524;13.422;2022-12-10T08:36:42;1.00;99.90
5711;DHT22;61291;52.524;13.422;2022-12-10T08:39:08;1.00;99.90
5711;DHT22;61291;52.524;13.422;2022-12-10T08:41:36;1.10;99.90
5711;DHT22;61291;52.524;13.422;2022-12-10T08:44:01;1.20;99.90
5711;DHT22;61291;52.524;13.422;2022-12-10T08:46:27;1.20;99.90
5711;DHT22;61291;52.524;13.422;2022-12-10T08:48:53;1.30;99.90
5711;DHT22;61291;52.524;13.422;2022-12-10T08:51:20;1.20;99.90
5711;DHT22;61291;52.524;13.422;2022-12-10T08:53:46;1.30;99.90
5711;DHT22;61291;52.524;13.422;2022-12-10T08:56:11;1.30;99.90
5711;DHT22;61291;52.524;13.422;2022-12-10T08:58:38;1.30;99.90
5711;DHT22;61291;52.524;13.422;2022-12-10T09:01:12;1.40;99.90
5711;DHT22;61291;52.524;13.422;2022-12-10T09:03:37;1.50;99.90
5711;DHT22;61291;52.524;13.422;2022-12-10T09:06:04;1.40;99.90
5711;DHT22;61291;52.524;13.422;2022-12-10T09:08:31;1.30;99.90
5711;DHT22;61291;52.524;13.422;2022-12-10T09:10:56;1.40;99.90
5711;DHT22;61291;52.524;13.422;2022-12-10T09:13:22;1.50;99.90
5711;DHT22;61291;52.524;13.422;2022-12-10T09:15:51;1.20;99.90
5711;DHT22;61291;52.524;13.422;2022-12-10T09:18:17;1.20;99.90
5711;DHT22;61291;52.524;13.422;2022-12-10T09:20:43;1.30;99.90
5711;DHT22;61291;52.524;13.422;2022-12-10T09:23:08;1.40;99.90
5711;DHT22;61291;52.524;13.422;2022-12-10T09:25:34;1.50;99.90
5711;DHT22;61291;52.524;13.422;2022-12-10T09:27:59;1.50;99.90
5711;DHT22;61291;52.524;13.422;2022-12-10T09:30:25;1.60;99.90
5711;DHT22;61291;52.524;13.422;2022-12-10T09:32:50;1.60;99.90
5711;DHT22;61291;52.524;13.422;2022-12-10T09:35:16;1.60;99.90
5711;DHT22;61291;52.524;13.422;2022-12-10T09:37:41;1.60;99.90
5711;DHT22;61291;52.524;13.422;2022-12-10T09:40:15;1.60;99.90
5711;DHT22;61291;52.524;13.422;2022-12-10T09:42:58;1.60;99.90
5711;DHT22;61291;52.524;13.422;2022-12-10T09:46:06;1.70;99.90
5711;DHT22;61291;52.524;13.422;2022-12-10T09:48:59;1.80;99.90
5711;DHT22;61291;52.524;13.422;2022-12-10T09:51:24;1.60;99.90
5711;DHT22;61291;52.524;13.422;2022-12-10T09:53:53;1.50;99.90
5711;DHT22;61291;52.524;13.422;2022-12-10T09:56:28;1.30;99.90
5711;DHT22;61291;52.524;13.422;2022-12-10T09:58:54;1.20;99.90
5711;DHT22;61291;52.524;13.422;2022-12-10T10:01:24;1.40;99.90
5711;DHT22;61291;52.524;13.422;2022-12-10T10:03:50;1.40;99.90
5711;DHT22;61291;52.524;13.422;2022-12-10T10:06:16;1.50;99.90
5711;DHT22;61291;52.524;13.422;2022-12-10T10:08:45;1.40;99.90
5711;DHT22;61291;52.524;13.422;2022-12-10T10:11:18;1.20;99.90
5711;DHT22;61291;52.524;13.422;2022-12-10T10:13:49;1.30;99.90
5711;DHT22;61291;52.524;13.422;2022-12-10T10:16:22;1.30;99.90
5711;DHT22;61291;52.524;13.422;2022-12-10T10:19:02;1.30;99.90
5711;DHT22;61291;52.524;13.422;2022-12-10T10:21:38;1.30;99.90
5711;DHT22;61291;52.524;13.422;2022-12-10T10:24:28;1.40;99.90
5711;DHT22;61291;52.524;13.422;2022-12-10T10:26:53;1.40;99.90
5711;DHT22;61291;52.524;13.422;2022-12-10T10:29:21;1.30;99.90
5711;DHT22;61291;52.524;13.422;2022-12-10T10:32:15;1.40;99.90
5711;DHT22;61291;52.524;13.422;2022-12-10T10:34:55;1.40;99.90
5711;DHT22;61291;52.524;13.422;2022-12-10T10:39:51;1.20;99.90
5711;DHT22;61291;52.524;13.422;2022-12-10T10:42:38;1.30;99.90
5711;DHT22;61291;52.524;13.422;2022-12-10T10:45:09;1.40;99.90
5711;DHT22;61291;52.524;13.422;2022-12-10T10:48:13;1.60;99.90
5711;DHT22;61291;52.524;13.422;2022-12-10T10:50:44;1.70;99.90
5711;DHT22;61291;52.524;13.422;2022-12-10T10:54:03;1.90;99.90
5711;DHT22;61291;52.524;13.422;2022-12-10T10:58:52;2.20;99.90
5711;DHT22;61291;52.524;13.422;2022-12-10T11:01:18;2.30;99.90
5711;DHT22;61291;52.524;13.422;2022-12-10T11:03:56;1.90;99.90
5711;DHT22;61291;52.524;13.422;2022-12-10T11:06:22;1.70;99.90
5711;DHT22;61291;52.524;13.422;2022-12-10T11:08:48;1.90;99.90
5711;DHT22;61291;52.524;13.422;2022-12-10T11:11:24;2.00;99.90
5711;DHT22;61291;52.524;13.422;2022-12-10T11:13:50;1.90;99.90
5711;DHT22;61291;52.524;13.422;2022-12-10T11:16:22;1.50;99.90
5711;DHT22;61291;52.524;13.422;2022-12-10T11:18:58;1.80;99.90
5711;DHT22;61291;52.524;13.422;2022-12-10T11:21:29;1.80;99.90
5711;DHT22;61291;52.524;13.422;2022-12-10T11:23:56;2.00;99.90
5711;DHT22;61291;52.524;13.422;2022-12-10T11:32:06;2.20;99.90
5711;DHT22;61291;52.524;13.422;2022-12-10T11:35:01;2.20;99.90
5711;DHT22;61291;52.524;13.422;2022-12-10T11:40:24;1.80;99.90
5711;DHT22;61291;52.524;13.422;2022-12-10T11:43:08;1.60;99.90
5711;DHT22;61291;52.524;13.422;2022-12-10T11:45:50;1.50;99.90
5711;DHT22;61291;52.524;13.422;2022-12-10T11:51:38;1.80;99.90
5711;DHT22;61291;52.524;13.422;2022-12-10T11:54:46;1.80;99.90
5711;DHT22;61291;52.524;13.422;2022-12-10T11:57:29;1.60;99.90
5711;DHT22;61291;52.524;13.422;2022-12-10T12:00:21;1.50;99.90
5711;DHT22;61291;52.524;13.422;2022-12-10T12:03:10;1.20;99.90
5711;DHT22;61291;52.524;13.422;2022-12-10T12:08:52;0.90;99.90
5711;DHT22;61291;52.524;13.422;2022-12-10T12:11:46;1.10;99.90
5711;DHT22;61291;52.524;13.422;2022-12-10T12:14:26;1.00;99.90
5711;DHT22;61291;52.524;13.422;2022-12-10T12:17:21;1.20;99.90
5711;DHT22;61291;52.524;13.422;2022-12-10T12:19:55;1.30;99.90
5711;DHT22;61291;52.524;13.422;2022-12-10T12:22:31;1.40;99.90
5711;DHT22;61291;52.524;13.422;2022-12-10T12:25:09;1.40;99.90
5711;DHT22;61291;52.524;13.422;2022-12-10T12:27:45;1.50;99.90
5711;DHT22;61291;52.524;13.422;2022-12-10T12:30:20;1.50;99.90
5711;DHT22;61291;52.524;13.422;2022-12-10T12:33:04;1.20;99.90
5711;DHT22;61291;52.524;13.422;2022-12-10T12:35:48;1.30;99.90
5711;DHT22;61291;52.524;13.422;2022-12-10T12:38:28;1.30;99.90
5711;DHT22;61291;52.524;13.422;2022-12-10T12:41:21;1.30;99.90
5711;DHT22;61291;52.524;13.422;2022-12-10T12:44:15;1.50;99.90
5711;DHT22;61291;52.524;13.422;2022-12-10T12:46:45;1.40;99.90
5711;DHT22;61291;52.524;13.422;2022-12-10T12:49:27;1.30;99.90
5711;DHT22;61291;52.524;13.422;2022-12-10T12:52:10;1.30;99.90
5711;DHT22;61291;52.524;13.422;2022-12-10T12:54:40;1.20;99.90
5711;DHT22;61291;52.524;13.422;2022-12-10T13:02:41;1.30;99.90
5711;DHT22;61291;52.524;13.422;2022-12-10T13:05:26;1.00;99.90
5711;DHT22;61291;52.524;13.422;2022-12-10T13:10:50;1.00;99.90
5711;DHT22;61291;52.524;13.422;2022-12-10T13:13:25;1.00;99.90
5711;DHT22;61291;52.524;13.422;2022-12-10T13:15:51;1.00;99.90
5711;DHT22;61291;52.524;13.422;2022-12-10T13:18:19;1.10;99.90
5711;DHT22;61291;52.524;13.422;2022-12-10T13:20:49;1.10;99.90
5711;DHT22;61291;52.524;13.422;2022-12-10T13:23:32;1.00;99.90
5711;DHT22;61291;52.524;13.422;2022-12-10T13:26:01;1.10;99.90
5711;DHT22;61291;52.524;13.422;2022-12-10T13:28:30;1.30;99.90
5711;DHT22;61291;52.524;13.422;2022-12-10T13:33:53;1.40;99.90
5711;DHT22;61291;52.524;13.422;2022-12-10T13:41:40;1.10;99.90
5711;DHT22;61291;52.524;13.422;2022-12-10T13:44:48;1.20;99.90
5711;DHT22;61291;52.524;13.422;2022-12-10T13:47:46;1.20;99.90
5711;DHT22;61291;52.524;13.422;2022-12-10T13:55:39;1.30;99.90
5711;DHT22;61291;52.524;13.422;2022-12-10T13:58:45;1.10;99.90
5711;DHT22;61291;52.524;13.422;2022-12-10T14:04:00;1.20;99.90
5711;DHT22;61291;52.524;13.422;2022-12-10T14:06:32;1.10;99.90
5711;DHT22;61291;52.524;13.422;2022-12-10T14:09:06;1.10;99.90
5711;DHT22;61291;52.524;13.422;2022-12-10T14:11:44;1.10;99.90
5711;DHT22;61291;52.524;13.422;2022-12-10T14:14:15;1.00;99.90
5711;DHT22;61291;52.524;13.422;2022-12-10T14:16:43;1.00;99.90
5711;DHT22;61291;52.524;13.422;2022-12-10T14:19:13;0.90;99.90
5711;DHT22;61291;52.524;13.422;2022-12-10T14:21:41;1.00;99.90
5711;DHT22;61291;52.524;13.422;2022-12-10T14:24:30;0.90;99.90
5711;DHT22;61291;52.524;13.422;2022-12-10T14:26:58;0.90;99.90
5711;DHT22;61291;52.524;13.422;2022-12-10T14:29:24;0.80;99.90
5711;DHT22;61291;52.524;13.422;2022-12-10T14:31:50;0.70;99.90
5711;DHT22;61291;52.524;13.422;2022-12-10T14:34:24;0.70;99.90
5711;DHT22;61291;52.524;13.422;2022-12-10T14:36:54;0.80;99.90
5711;DHT22;61291;52.524;13.422;2022-12-10T14:39:31;0.90;99.90
5711;DHT22;61291;52.524;13.422;2022-12-10T14:41:59;0.90;99.90
5711;DHT22;61291;52.524;13.422;2022-12-10T14:44:26;0.90;99.90
5711;DHT22;61291;52.524;13.422;2022-12-10T14:47:15;0.90;99.90
5711;DHT22;61291;52.524;13.422;2022-12-10T14:49:47;0.70;99.90
5711;DHT22;61291;52.524;13.422;2022-12-10T14:52:15;0.60;99.90
5711;DHT22;61291;52.524;13.422;2022-12-10T14:54:41;0.60;99.90
5711;DHT22;61291;52.524;13.422;2022-12-10T14:57:13;0.70;99.90
5711;DHT22;61291;52.524;13.422;2022-12-10T14:59:48;0.80;99.90
5711;DHT22;61291;52.524;13.422;2022-12-10T15:02:26;0.70;99.90
5711;DHT22;61291;52.524;13.422;2022-12-10T15:04:54;0.70;99.90
5711;DHT22;61291;52.524;13.422;2022-12-10T15:07:23;0.80;99.90
5711;DHT22;61291;52.524;13.422;2022-12-10T15:09:50;0.70;99.90
5711;DHT22;61291;52.524;13.422;2022-12-10T15:12:37;0.70;99.90
5711;DHT22;61291;52.524;13.422;2022-12-10T15:23:15;0.70;99.90
5711;DHT22;61291;52.524;13.422;2022-12-10T15:26:31;0.70;99.90
5711;DHT22;61291;52.524;13.422;2022-12-10T15:28:38;0.70;99.90
5711;DHT22;61291;52.524;13.422;2022-12-10T15:33:57;0.70;99.90
5711;DHT22;61291;52.524;13.422;2022-12-10T15:36:40;0.80;99.90
5711;DHT22;61291;52.524;13.422;2022-12-10T15:39:25;0.80;99.90
5711;DHT22;61291;52.524;13.422;2022-12-10T15:41:54;0.70;99.90
5711;DHT22;61291;52.524;13.422;2022-12-10T15:47:04;0.70;99.90
5711;DHT22;61291;52.524;13.422;2022-12-10T15:49:33;0.70;99.90
5711;DHT22;61291;52.524;13.422;2022-12-10T15:51:59;0.70;99.90
5711;DHT22;61291;52.524;13.422;2022-12-10T15:54:39;0.70;99.90
5711;DHT22;61291;52.524;13.422;2022-12-10T15:57:14;0.60;99.90
5711;DHT22;61291;52.524;13.422;2022-12-10T15:59:41;0.70;99.90
5711;DHT22;61291;52.524;13.422;2022-12-10T16:04:51;0.80;99.90
5711;DHT22;61291;52.524;13.422;2022-12-10T16:07:16;0.80;99.90
5711;DHT22;61291;52.524;13.422;2022-12-10T16:09:43;0.80;99.90
5711;DHT22;61291;52.524;13.422;2022-12-10T16:12:15;0.80;99.90
5711;DHT22;61291;52.524;13.422;2022-12-10T16:14:47;0.60;99.90
5711;DHT22;61291;52.524;13.422;2022-12-10T16:17:13;0.70;99.90
5711;DHT22;61291;52.524;13.422;2022-12-10T16:19:38;0.70;99.90
5711;DHT22;61291;52.524;13.422;2022-12-10T16:22:06;0.70;99.90
5711;DHT22;61291;52.524;13.422;2022-12-10T16:24:32;0.60;99.90
5711;DHT22;61291;52.524;13.422;2022-12-10T16:26:57;0.60;99.90
5711;DHT22;61291;52.524;13.422;2022-12-10T16:29:23;0.60;99.90
5711;DHT22;61291;52.524;13.422;2022-12-10T16:31:49;0.70;99.90
5711;DHT22;61291;52.524;13.422;2022-12-10T16:34:14;0.80;99.90
5711;DHT22;61291;52.524;13.422;2022-12-10T16:36:40;0.80;99.90
5711;DHT22;61291;52.524;13.422;2022-12-10T16:39:05;0.90;99.90
5711;DHT22;61291;52.524;13.422;2022-12-10T16:41:32;0.90;99.90
5711;DHT22;61291;52.524;13.422;2022-12-10T16:43:58;0.90;99.90
5711;DHT22;61291;52.524;13.422;2022-12-10T16:46:23;0.90;99.90
5711;DHT22;61291;52.524;13.422;2022-12-10T16:48:49;1.00;99.90
5711;DHT22;61291;52.524;13.422;2022-12-10T16:51:22;1.00;99.90
5711;DHT22;61291;52.524;13.422;2022-12-10T16:53:48;1.00;99.90
5711;DHT22;61291;52.524;13.422;2022-12-10T16:56:17;1.00;99.90
5711;DHT22;61291;52.524;13.422;2022-12-10T16:58:43;1.00;99.90
5711;DHT22;61291;52.524;13.422;2022-12-10T17:01:24;1.00;99.90
5711;DHT22;61291;52.524;13.422;2022-12-10T17:03:53;1.00;99.90
5711;DHT22;61291;52.524;13.422;2022-12-10T17:06:19;1.00;99.90
5711;DHT22;61291;52.524;13.422;2022-12-10T17:08:45;1.00;99.90
5711;DHT22;61291;52.524;13.422;2022-12-10T17:11:21;1.00;99.90
5711;DHT22;61291;52.524;13.422;2022-12-10T17:14:21;1.10;99.90
5711;DHT22;61291;52.524;13.422;2022-12-10T17:16:47;1.10;99.90
5711;DHT22;61291;52.524;13.422;2022-12-10T17:19:13;1.10;99.90
5711;DHT22;61291;52.524;13.422;2022-12-10T17:21:39;1.10;99.90
5711;DHT22;61291;52.524;13.422;2022-12-10T17:24:05;1.00;99.90
5711;DHT22;61291;52.524;13.422;2022-12-10T17:26:33;1.00;99.90
5711;DHT22;61291;52.524;13.422;2022-12-10T17:29:03;1.00;99.90
5711;DHT22;61291;52.524;13.422;2022-12-10T17:31:30;1.00;99.90